sensor_id;sensor_type;location;lat;lon;timestamp;P1;durP1;ratioP1;P2;durP2;ratioP2
82711;SDS011;72433;41.992;21.438;2024-03-29T13:23:48;4.35;;;1.33;;
82711;SDS011;72433;41.992;21.438;2024-03-29T13:26:40;2.90;;;1.02;;
82711;SDS011;72433;41.992;21.438;2024-03-29T13:57:56;3.25;;;1.17;;
82711;SDS011;72433;41.992;21.438;2024-03-29T14:00:25;4.15;;;1.10;;
82711;SDS011;72433;41.992;21.438;2024-03-29T14:03:01;4.93;;;1.33;;
82711;SDS011;72433;41.992;21.438;2024-03-29T14:05:42;5.03;;;1.40;;
82711;SDS011;72433;41.992;21.438;2024-03-29T14:08:17;4.22;;;1.52;;
82711;SDS011;72433;41.992;21.438;2024-03-29T14:13:43;5.68;;;1.70;;
82711;SDS011;72433;41.992;21.438;2024-03-29T14:28:38;3.40;;;1.10;;
82711;SDS011;72433;41.992;21.438;2024-03-29T14:31:32;4.82;;;1.30;;
82711;SDS011;72433;41.992;21.438;2024-03-29T14:37:08;4.93;;;1.40;;
82711;SDS011;72433;41.992;21.438;2024-03-29T15:13:12;4.38;;;1.38;;
82711;SDS011;72433;41.992;21.438;2024-03-29T15:28:32;5.55;;;1.63;;
82711;SDS011;72433;41.992;21.438;2024-03-29T15:31:33;5.28;;;1.42;;
82711;SDS011;72433;41.992;21.438;2024-03-29T15:34:25;3.80;;;1.50;;
82711;SDS011;72433;41.992;21.438;2024-03-29T15:37:24;4.15;;;1.50;;
82711;SDS011;72433;41.992;21.438;2024-03-29T15:39:54;4.55;;;1.58;;
82711;SDS011;72433;41.992;21.438;2024-03-29T15:42:38;4.57;;;1.67;;
82711;SDS011;72433;41.992;21.438;2024-03-29T15:54:21;8.85;;;1.90;;
82711;SDS011;72433;41.992;21.438;2024-03-29T15:56:56;6.45;;;1.85;;
82711;SDS011;72433;41.992;21.438;2024-03-29T15:59:32;3.80;;;1.40;;
82711;SDS011;72433;41.992;21.438;2024-03-29T16:02:07;5.60;;;1.55;;
82711;SDS011;72433;41.992;21.438;2024-03-29T16:04:57;7.60;;;2.05;;
82711;SDS011;72433;41.992;21.438;2024-03-29T16:07:23;7.43;;;2.13;;
82711;SDS011;72433;41.992;21.438;2024-03-29T16:09:49;7.38;;;2.65;;
82711;SDS011;72433;41.992;21.438;2024-03-29T16:12:16;5.25;;;2.10;;
82711;SDS011;72433;41.992;21.438;2024-03-29T16:14:42;8.32;;;2.42;;
82711;SDS011;72433;41.992;21.438;2024-03-29T16:17:08;12.38;;;2.20;;
82711;SDS011;72433;41.992;21.438;2024-03-29T16:19:34;10.23;;;2.22;;
82711;SDS011;72433;41.992;21.438;2024-03-29T16:22:00;9.55;;;2.13;;
82711;SDS011;72433;41.992;21.438;2024-03-29T16:32:45;7.40;;;2.78;;
82711;SDS011;72433;41.992;21.438;2024-03-29T16:35:19;6.35;;;2.25;;
82711;SDS011;72433;41.992;21.438;2024-03-29T16:37:48;14.77;;;5.05;;
82711;SDS011;72433;41.992;21.438;2024-03-29T16:57:36;13.38;;;5.00;;
82711;SDS011;72433;41.992;21.438;2024-03-29T17:02:48;16.90;;;5.93;;
82711;SDS011;72433;41.992;21.438;2024-03-29T17:05:24;12.77;;;6.03;;
82711;SDS011;72433;41.992;21.438;2024-03-29T17:07:50;15.73;;;7.43;;
82711;SDS011;72433;41.992;21.438;2024-03-29T17:10:19;20.35;;;6.70;;
82711;SDS011;72433;41.992;21.438;2024-03-29T17:12:48;22.42;;;8.52;;
82711;SDS011;72433;41.992;21.438;2024-03-29T17:15:19;47.78;;;16.10;;
82711;SDS011;72433;41.992;21.438;2024-03-29T17:17:45;40.65;;;15.02;;
82711;SDS011;72433;41.992;21.438;2024-03-29T17:20:14;31.63;;;11.82;;
82711;SDS011;72433;41.992;21.438;2024-03-29T17:22:46;15.70;;;8.02;;
82711;SDS011;72433;41.992;21.438;2024-03-29T17:25:12;18.27;;;7.35;;
82711;SDS011;72433;41.992;21.438;2024-03-29T17:27:38;27.42;;;8.70;;
82711;SDS011;72433;41.992;21.438;2024-03-29T17:30:05;20.38;;;7.28;;
82711;SDS011;72433;41.992;21.438;2024-03-29T17:32:31;12.50;;;7.03;;
82711;SDS011;72433;41.992;21.438;2024-03-29T17:35:01;24.20;;;8.70;;
82711;SDS011;72433;41.992;21.438;2024-03-29T17:37:27;20.98;;;9.68;;
82711;SDS011;72433;41.992;21.438;2024-03-29T17:39:53;23.30;;;10.70;;
82711;SDS011;72433;41.992;21.438;2024-03-29T17:42:19;27.15;;;9.77;;
82711;SDS011;72433;41.992;21.438;2024-03-29T17:44:48;19.63;;;9.30;;
82711;SDS011;72433;41.992;21.438;2024-03-29T17:47:14;25.08;;;10.00;;
82711;SDS011;72433;41.992;21.438;2024-03-29T17:49:41;18.85;;;8.52;;
82711;SDS011;72433;41.992;21.438;2024-03-29T17:52:09;19.45;;;8.02;;
82711;SDS011;72433;41.992;21.438;2024-03-29T17:54:38;18.52;;;7.60;;
82711;SDS011;72433;41.992;21.438;2024-03-29T17:57:04;29.77;;;11.60;;
82711;SDS011;72433;41.992;21.438;2024-03-29T17:59:31;24.77;;;10.30;;
82711;SDS011;72433;41.992;21.438;2024-03-29T18:01:57;20.90;;;9.25;;
82711;SDS011;72433;41.992;21.438;2024-03-29T18:04:23;17.55;;;8.32;;
82711;SDS011;72433;41.992;21.438;2024-03-29T18:06:49;31.20;;;9.00;;
82711;SDS011;72433;41.992;21.438;2024-03-29T18:09:15;28.60;;;10.15;;
82711;SDS011;72433;41.992;21.438;2024-03-29T18:11:41;35.65;;;16.80;;
82711;SDS011;72433;41.992;21.438;2024-03-29T18:14:08;38.00;;;16.33;;
82711;SDS011;72433;41.992;21.438;2024-03-29T18:16:34;38.83;;;16.45;;
82711;SDS011;72433;41.992;21.438;2024-03-29T18:19:00;37.35;;;17.40;;
82711;SDS011;72433;41.992;21.438;2024-03-29T18:21:27;36.17;;;16.55;;
82711;SDS011;72433;41.992;21.438;2024-03-29T18:23:55;30.05;;;12.15;;
82711;SDS011;72433;41.992;21.438;2024-03-29T18:26:21;39.33;;;13.77;;
82711;SDS011;72433;41.992;21.438;2024-03-29T18:28:47;31.90;;;9.65;;
82711;SDS011;72433;41.992;21.438;2024-03-29T18:31:13;24.30;;;9.80;;
82711;SDS011;72433;41.992;21.438;2024-03-29T18:33:39;16.92;;;8.93;;
82711;SDS011;72433;41.992;21.438;2024-03-29T18:36:05;29.98;;;10.32;;
82711;SDS011;72433;41.992;21.438;2024-03-29T18:38:32;18.27;;;9.93;;
82711;SDS011;72433;41.992;21.438;2024-03-29T18:41:05;17.10;;;7.25;;
82711;SDS011;72433;41.992;21.438;2024-03-29T18:43:31;15.82;;;6.72;;
82711;SDS011;72433;41.992;21.438;2024-03-29T18:46:02;19.83;;;7.50;;
82711;SDS011;72433;41.992;21.438;2024-03-29T18:48:28;14.55;;;8.05;;
82711;SDS011;72433;41.992;21.438;2024-03-29T18:50:55;18.10;;;8.30;;
82711;SDS011;72433;41.992;21.438;2024-03-29T18:53:21;17.08;;;8.07;;
82711;SDS011;72433;41.992;21.438;2024-03-29T18:56:21;16.63;;;8.50;;
82711;SDS011;72433;41.992;21.438;2024-03-29T18:58:42;13.70;;;7.18;;
82711;SDS011;72433;41.992;21.438;2024-03-29T19:01:08;20.05;;;7.95;;
82711;SDS011;72433;41.992;21.438;2024-03-29T19:03:34;16.88;;;7.53;;
82711;SDS011;72433;41.992;21.438;2024-03-29T19:06:00;13.95;;;7.47;;
82711;SDS011;72433;41.992;21.438;2024-03-29T19:08:26;17.95;;;6.95;;
82711;SDS011;72433;41.992;21.438;2024-03-29T19:10:54;15.38;;;6.78;;
82711;SDS011;72433;41.992;21.438;2024-03-29T19:13:21;17.02;;;8.18;;
82711;SDS011;72433;41.992;21.438;2024-03-29T19:15:47;20.38;;;8.43;;
82711;SDS011;72433;41.992;21.438;2024-03-29T19:18:13;26.15;;;9.85;;
82711;SDS011;72433;41.992;21.438;2024-03-29T19:20:42;20.52;;;10.75;;
82711;SDS011;72433;41.992;21.438;2024-03-29T19:23:08;19.77;;;10.15;;
82711;SDS011;72433;41.992;21.438;2024-03-29T19:25:34;19.77;;;9.65;;
82711;SDS011;72433;41.992;21.438;2024-03-29T19:28:00;23.40;;;11.27;;
82711;SDS011;72433;41.992;21.438;2024-03-29T19:30:29;23.27;;;12.13;;
82711;SDS011;72433;41.992;21.438;2024-03-29T19:32:57;22.25;;;11.73;;
82711;SDS011;72433;41.992;21.438;2024-03-29T19:35:24;24.92;;;11.13;;
82711;SDS011;72433;41.992;21.438;2024-03-29T19:37:50;24.63;;;10.50;;
82711;SDS011;72433;41.992;21.438;2024-03-29T19:40:26;21.90;;;10.88;;
82711;SDS011;72433;41.992;21.438;2024-03-29T19:42:52;18.98;;;10.85;;
82711;SDS011;72433;41.992;21.438;2024-03-29T19:45:35;16.25;;;8.10;;
82711;SDS011;72433;41.992;21.438;2024-03-29T19:48:01;14.82;;;7.63;;
82711;SDS011;72433;41.992;21.438;2024-03-29T19:50:28;21.60;;;8.45;;
82711;SDS011;72433;41.992;21.438;2024-03-29T19:52:54;16.23;;;7.65;;
82711;SDS011;72433;41.992;21.438;2024-03-29T19:55:20;18.38;;;8.50;;
82711;SDS011;72433;41.992;21.438;2024-03-29T19:57:46;21.92;;;8.98;;
82711;SDS011;72433;41.992;21.438;2024-03-29T20:00:13;23.85;;;11.30;;
82711;SDS011;72433;41.992;21.438;2024-03-29T20:02:41;20.70;;;11.07;;
82711;SDS011;72433;41.992;21.438;2024-03-29T20:05:08;19.42;;;10.57;;
82711;SDS011;72433;41.992;21.438;2024-03-29T20:07:35;21.65;;;11.55;;
82711;SDS011;72433;41.992;21.438;2024-03-29T20:10:07;26.95;;;12.10;;
82711;SDS011;72433;41.992;21.438;2024-03-29T20:12:34;19.83;;;11.63;;
82711;SDS011;72433;41.992;21.438;2024-03-29T20:15:01;24.45;;;11.93;;
82711;SDS011;72433;41.992;21.438;2024-03-29T20:17:28;19.65;;;11.32;;
82711;SDS011;72433;41.992;21.438;2024-03-29T20:19:54;20.20;;;11.25;;
82711;SDS011;72433;41.992;21.438;2024-03-29T20:22:20;20.70;;;11.35;;
82711;SDS011;72433;41.992;21.438;2024-03-29T20:24:47;26.55;;;10.35;;
82711;SDS011;72433;41.992;21.438;2024-03-29T20:27:13;20.00;;;10.40;;
82711;SDS011;72433;41.992;21.438;2024-03-29T20:29:42;22.58;;;11.00;;
82711;SDS011;72433;41.992;21.438;2024-03-29T20:32:08;19.25;;;10.07;;
82711;SDS011;72433;41.992;21.438;2024-03-29T20:34:34;23.48;;;9.90;;
82711;SDS011;72433;41.992;21.438;2024-03-29T20:37:04;20.30;;;8.90;;
82711;SDS011;72433;41.992;21.438;2024-03-29T20:39:36;20.48;;;9.75;;
82711;SDS011;72433;41.992;21.438;2024-03-29T20:42:03;19.40;;;8.10;;
82711;SDS011;72433;41.992;21.438;2024-03-29T20:44:32;18.30;;;9.48;;
82711;SDS011;72433;41.992;21.438;2024-03-29T20:46:58;18.20;;;9.57;;
82711;SDS011;72433;41.992;21.438;2024-03-29T20:49:28;18.20;;;8.65;;
82711;SDS011;72433;41.992;21.438;2024-03-29T20:51:55;19.35;;;9.85;;
82711;SDS011;72433;41.992;21.438;2024-03-29T20:54:21;21.92;;;10.60;;
82711;SDS011;72433;41.992;21.438;2024-03-29T20:56:47;25.77;;;10.90;;
82711;SDS011;72433;41.992;21.438;2024-03-29T20:59:16;22.63;;;10.00;;
82711;SDS011;72433;41.992;21.438;2024-03-29T21:01:42;19.58;;;10.30;;
82711;SDS011;72433;41.992;21.438;2024-03-29T21:04:27;25.55;;;12.20;;
82711;SDS011;72433;41.992;21.438;2024-03-29T21:07:12;27.88;;;11.63;;
82711;SDS011;72433;41.992;21.438;2024-03-29T21:09:38;28.13;;;11.85;;
82711;SDS011;72433;41.992;21.438;2024-03-29T21:12:04;24.65;;;12.40;;
82711;SDS011;72433;41.992;21.438;2024-03-29T21:14:37;28.63;;;11.98;;
82711;SDS011;72433;41.992;21.438;2024-03-29T21:17:03;27.10;;;11.27;;
82711;SDS011;72433;41.992;21.438;2024-03-29T21:19:32;28.00;;;13.00;;
82711;SDS011;72433;41.992;21.438;2024-03-29T21:21:58;30.65;;;12.38;;
82711;SDS011;72433;41.992;21.438;2024-03-29T21:24:26;24.50;;;12.15;;
82711;SDS011;72433;41.992;21.438;2024-03-29T21:26:53;25.23;;;12.95;;
82711;SDS011;72433;41.992;21.438;2024-03-29T21:29:19;23.20;;;12.23;;
82711;SDS011;72433;41.992;21.438;2024-03-29T21:31:51;28.60;;;12.68;;
82711;SDS011;72433;41.992;21.438;2024-03-29T21:34:17;29.05;;;13.30;;
82711;SDS011;72433;41.992;21.438;2024-03-29T21:36:43;33.00;;;14.00;;
82711;SDS011;72433;41.992;21.438;2024-03-29T21:39:12;29.77;;;12.90;;
82711;SDS011;72433;41.992;21.438;2024-03-29T21:41:38;34.13;;;14.20;;
82711;SDS011;72433;41.992;21.438;2024-03-29T21:44:05;30.90;;;13.30;;
82711;SDS011;72433;41.992;21.438;2024-03-29T21:46:31;25.55;;;12.98;;
82711;SDS011;72433;41.992;21.438;2024-03-29T21:48:57;29.75;;;13.90;;
82711;SDS011;72433;41.992;21.438;2024-03-29T21:51:26;27.27;;;13.23;;
82711;SDS011;72433;41.992;21.438;2024-03-29T21:53:58;24.75;;;12.18;;
82711;SDS011;72433;41.992;21.438;2024-03-29T21:56:24;21.40;;;11.20;;
82711;SDS011;72433;41.992;21.438;2024-03-29T21:58:50;21.30;;;10.60;;
82711;SDS011;72433;41.992;21.438;2024-03-29T22:01:19;17.65;;;9.45;;
82711;SDS011;72433;41.992;21.438;2024-03-29T22:03:54;21.25;;;9.90;;
82711;SDS011;72433;41.992;21.438;2024-03-29T22:06:28;21.40;;;10.38;;
82711;SDS011;72433;41.992;21.438;2024-03-29T22:08:55;20.13;;;9.23;;
82711;SDS011;72433;41.992;21.438;2024-03-29T22:11:21;16.23;;;9.25;;
82711;SDS011;72433;41.992;21.438;2024-03-29T22:13:47;20.15;;;10.18;;
82711;SDS011;72433;41.992;21.438;2024-03-29T22:16:14;23.02;;;9.32;;
82711;SDS011;72433;41.992;21.438;2024-03-29T22:18:40;23.35;;;9.55;;
82711;SDS011;72433;41.992;21.438;2024-03-29T22:21:06;15.98;;;8.73;;
82711;SDS011;72433;41.992;21.438;2024-03-29T22:23:32;16.55;;;8.65;;
82711;SDS011;72433;41.992;21.438;2024-03-29T22:25:58;28.52;;;9.93;;
82711;SDS011;72433;41.992;21.438;2024-03-29T22:28:24;21.83;;;9.40;;
82711;SDS011;72433;41.992;21.438;2024-03-29T22:30:59;21.38;;;10.18;;
82711;SDS011;72433;41.992;21.438;2024-03-29T22:33:25;20.70;;;8.88;;
82711;SDS011;72433;41.992;21.438;2024-03-29T22:35:54;17.17;;;9.30;;
82711;SDS011;72433;41.992;21.438;2024-03-29T22:38:20;15.63;;;8.00;;
82711;SDS011;72433;41.992;21.438;2024-03-29T22:40:54;19.52;;;8.35;;
82711;SDS011;72433;41.992;21.438;2024-03-29T22:43:23;20.58;;;8.60;;
82711;SDS011;72433;41.992;21.438;2024-03-29T22:45:49;18.17;;;8.40;;
82711;SDS011;72433;41.992;21.438;2024-03-29T22:48:16;18.67;;;8.45;;
82711;SDS011;72433;41.992;21.438;2024-03-29T22:50:50;17.38;;;8.63;;
82711;SDS011;72433;41.992;21.438;2024-03-29T22:53:16;17.33;;;8.27;;
82711;SDS011;72433;41.992;21.438;2024-03-29T22:55:46;19.13;;;8.50;;
82711;SDS011;72433;41.992;21.438;2024-03-29T22:58:12;18.25;;;8.00;;
82711;SDS011;72433;41.992;21.438;2024-03-29T23:00:38;17.40;;;8.10;;
82711;SDS011;72433;41.992;21.438;2024-03-29T23:03:05;22.58;;;8.98;;
82711;SDS011;72433;41.992;21.438;2024-03-29T23:05:40;20.02;;;9.38;;
82711;SDS011;72433;41.992;21.438;2024-03-29T23:08:09;19.35;;;9.32;;
82711;SDS011;72433;41.992;21.438;2024-03-29T23:10:35;19.38;;;9.23;;
82711;SDS011;72433;41.992;21.438;2024-03-29T23:13:01;23.05;;;9.48;;
82711;SDS011;72433;41.992;21.438;2024-03-29T23:15:28;24.05;;;10.13;;
82711;SDS011;72433;41.992;21.438;2024-03-29T23:17:58;18.15;;;9.25;;
82711;SDS011;72433;41.992;21.438;2024-03-29T23:20:27;18.13;;;9.77;;
82711;SDS011;72433;41.992;21.438;2024-03-29T23:22:53;20.58;;;9.25;;
82711;SDS011;72433;41.992;21.438;2024-03-29T23:25:29;15.00;;;8.02;;
82711;SDS011;72433;41.992;21.438;2024-03-29T23:27:55;21.63;;;9.50;;
82711;SDS011;72433;41.992;21.438;2024-03-29T23:30:21;16.70;;;8.65;;
82711;SDS011;72433;41.992;21.438;2024-03-29T23:32:49;17.80;;;9.48;;
82711;SDS011;72433;41.992;21.438;2024-03-29T23:35:19;17.13;;;10.13;;
82711;SDS011;72433;41.992;21.438;2024-03-29T23:37:45;23.40;;;9.48;;
82711;SDS011;72433;41.992;21.438;2024-03-29T23:40:13;18.42;;;9.18;;
82711;SDS011;72433;41.992;21.438;2024-03-29T23:42:40;19.40;;;9.18;;
82711;SDS011;72433;41.992;21.438;2024-03-29T23:45:06;24.05;;;8.20;;
82711;SDS011;72433;41.992;21.438;2024-03-29T23:47:32;22.08;;;9.27;;
82711;SDS011;72433;41.992;21.438;2024-03-29T23:49:58;18.60;;;9.65;;
82711;SDS011;72433;41.992;21.438;2024-03-29T23:52:25;20.23;;;9.00;;
82711;SDS011;72433;41.992;21.438;2024-03-29T23:55:05;22.75;;;8.07;;
82711;SDS011;72433;41.992;21.438;2024-03-29T23:57:32;16.20;;;7.57;;
82711;SDS011;72433;41.992;21.438;2024-03-29T23:59:58;18.40;;;7.80;;
